createdAt,value
2018-03-27T00:00:25.083Z,35.73
2018-03-27T00:02:52.077Z,33.90
2018-03-27T00:05:19.104Z,33.67
2018-03-27T00:07:46.115Z,35.13
2018-03-27T00:10:13.106Z,33.13
2018-03-27T00:12:40.100Z,36.50
2018-03-27T00:15:06.980Z,35.97
2018-03-27T00:17:33.933Z,35.93
2018-03-27T00:20:00.933Z,34.03
2018-03-27T00:22:27.993Z,34.47
2018-03-27T00:24:54.941Z,35.85
2018-03-27T00:27:27.974Z,34.35
2018-03-27T00:30:00.751Z,36.53
2018-03-27T00:32:33.786Z,34.63
2018-03-27T00:35:06.747Z,36.75
2018-03-27T00:37:39.531Z,35.55
2018-03-27T00:40:12.302Z,34.83
2018-03-27T00:42:56.965Z,35.22
2018-03-27T00:45:24.021Z,33.90
2018-03-27T00:47:51.063Z,34.97
2018-03-27T00:50:17.971Z,34.92
2018-03-27T00:52:44.906Z,36.35
2018-03-27T00:55:11.881Z,35.85
2018-03-27T00:57:38.822Z,35.58
2018-03-27T01:00:05.853Z,35.20
2018-03-27T01:02:32.858Z,36.55
2018-03-27T01:05:05.583Z,37.10
2018-03-27T01:07:32.542Z,35.90
2018-03-27T01:09:59.463Z,35.45
2018-03-27T01:12:26.444Z,36.57
2018-03-27T01:14:53.450Z,36.90
2018-03-27T01:17:20.550Z,36.83
2018-03-27T01:19:47.633Z,36.97
2018-03-27T01:22:14.706Z,35.38
2018-03-27T01:24:41.734Z,35.70
2018-03-27T01:27:08.691Z,37.33
2018-03-27T01:29:35.587Z,37.10
2018-03-27T01:32:02.513Z,37.53
2018-03-27T01:34:29.412Z,37.07
2018-03-27T01:36:56.352Z,38.28
2018-03-27T01:39:23.407Z,35.63
2018-03-27T01:41:50.373Z,36.73
2018-03-27T01:44:17.389Z,36.58
2018-03-27T01:46:44.416Z,36.47
2018-03-27T01:49:11.416Z,37.38
2018-03-27T01:51:38.446Z,38.57
2018-03-27T01:54:05.471Z,36.30
2018-03-27T01:56:32.520Z,36.67
2018-03-27T01:58:59.459Z,39.00
2018-03-27T02:01:26.482Z,35.03
2018-03-27T02:03:53.638Z,37.70
2018-03-27T02:06:20.729Z,36.97
2018-03-27T02:08:47.766Z,37.75
2018-03-27T02:11:20.464Z,37.20
2018-03-27T02:13:53.238Z,38.08
2018-03-27T02:16:25.953Z,37.22
2018-03-27T02:18:58.633Z,37.65
2018-03-27T02:21:25.330Z,38.55
2018-03-27T02:23:55.259Z,39.47
2018-03-27T02:26:22.297Z,39.40
2018-03-27T02:28:49.190Z,38.58
2018-03-27T02:31:16.146Z,38.83
2018-03-27T02:33:43.060Z,38.35
2018-03-27T02:36:10.210Z,40.20
2018-03-27T02:38:37.229Z,38.40
2018-03-27T02:41:04.336Z,38.40
2018-03-27T02:43:31.295Z,38.27
2018-03-27T02:45:58.450Z,40.03
2018-03-27T02:48:25.471Z,38.80
2018-03-27T02:50:52.637Z,38.00
2018-03-27T02:53:19.585Z,40.00
2018-03-27T02:55:46.500Z,39.30
2018-03-27T02:58:13.584Z,39.08
2018-03-27T03:00:40.488Z,38.80
2018-03-27T03:03:07.512Z,40.25
2018-03-27T03:05:34.419Z,39.90
2018-03-27T03:08:01.401Z,39.25
2018-03-27T03:10:28.415Z,40.17
2018-03-27T03:12:55.353Z,38.63
2018-03-27T03:15:22.398Z,38.97
2018-03-27T03:17:49.375Z,38.83
2018-03-27T03:20:16.432Z,38.63
2018-03-27T03:22:43.412Z,37.55
2018-03-27T03:25:10.303Z,40.53
2018-03-27T03:27:37.242Z,38.28
2018-03-27T03:30:04.165Z,38.83
2018-03-27T03:32:31.126Z,38.47
2018-03-27T03:34:58.091Z,38.40
2018-03-27T03:37:25.079Z,38.95
2018-03-27T03:39:52.205Z,39.42
2018-03-27T03:42:19.259Z,37.42
2018-03-27T03:44:46.196Z,37.75
2018-03-27T03:47:13.162Z,38.80
2018-03-27T03:49:40.169Z,38.97
2018-03-27T03:52:07.372Z,39.75
2018-03-27T03:54:34.458Z,39.60
2018-03-27T03:57:01.373Z,38.47
2018-03-27T03:59:28.328Z,38.45
2018-03-27T04:01:55.426Z,40.50
2018-03-27T04:04:22.396Z,39.72
2018-03-27T04:06:49.544Z,39.08
2018-03-27T04:09:16.518Z,39.17
2018-03-27T04:11:43.530Z,39.58
2018-03-27T04:14:10.494Z,40.08
2018-03-27T04:16:37.591Z,38.65
2018-03-27T04:19:04.483Z,37.80
2018-03-27T04:21:31.780Z,39.25
2018-03-27T04:23:58.765Z,39.55
2018-03-27T04:26:25.657Z,38.80
2018-03-27T04:28:52.618Z,39.22
2018-03-27T04:31:19.557Z,38.95
2018-03-27T04:33:46.413Z,40.22
2018-03-27T04:36:13.282Z,39.92
2018-03-27T04:38:40.250Z,37.63
2018-03-27T04:41:07.249Z,39.35
2018-03-27T04:43:34.198Z,39.10
2018-03-27T04:46:02.048Z,40.63
2018-03-27T04:48:28.955Z,39.22
2018-03-27T04:50:55.989Z,40.75
2018-03-27T04:53:23.009Z,41.45
2018-03-27T04:55:50.050Z,38.80
2018-03-27T04:58:17.019Z,39.92
2018-03-27T05:00:43.922Z,40.63
2018-03-27T05:03:10.932Z,40.90
2018-03-27T05:05:37.824Z,40.60
2018-03-27T05:08:04.771Z,39.90
2018-03-27T05:10:31.688Z,42.05
2018-03-27T05:12:58.637Z,41.40
2018-03-27T05:15:25.731Z,40.83
2018-03-27T05:17:52.674Z,40.08
2018-03-27T05:20:19.704Z,39.63
2018-03-27T05:22:46.660Z,39.20
2018-03-27T05:25:13.546Z,40.58
2018-03-27T05:27:40.545Z,40.33
2018-03-27T05:30:07.593Z,38.70
2018-03-27T05:32:34.558Z,39.95
2018-03-27T05:35:01.646Z,38.88
2018-03-27T05:37:28.540Z,39.35
2018-03-27T05:39:55.471Z,39.67
2018-03-27T05:42:22.439Z,38.83
2018-03-27T05:44:49.477Z,38.60
2018-03-27T05:47:16.388Z,40.42
2018-03-27T05:49:43.325Z,39.53
2018-03-27T05:52:10.290Z,41.15
2018-03-27T05:54:37.238Z,37.90
2018-03-27T05:57:04.258Z,38.78
2018-03-27T05:59:31.191Z,38.87
2018-03-27T06:01:58.231Z,38.45
2018-03-27T06:04:25.192Z,39.63
2018-03-27T06:06:52.150Z,40.22
2018-03-27T06:09:19.097Z,39.63
2018-03-27T06:11:46.048Z,38.45
2018-03-27T06:14:12.992Z,37.70
2018-03-27T06:16:40.037Z,39.33
2018-03-27T06:19:07.094Z,38.53
2018-03-27T06:21:34.232Z,37.93
2018-03-27T06:24:01.192Z,39.30
2018-03-27T06:26:28.255Z,35.77
2018-03-27T06:28:55.273Z,39.92
2018-03-27T06:31:22.515Z,41.67
2018-03-27T06:33:49.661Z,38.73
2018-03-27T06:36:16.773Z,38.57
2018-03-27T06:38:43.688Z,38.67
2018-03-27T06:41:10.817Z,39.03
2018-03-27T06:43:37.811Z,38.93
2018-03-27T06:46:04.920Z,39.93
2018-03-27T06:48:31.828Z,39.57
2018-03-27T06:50:58.862Z,38.43
2018-03-27T06:53:26.007Z,38.40
2018-03-27T06:55:53.109Z,37.57
2018-03-27T06:58:20.104Z,37.67
2018-03-27T07:00:47.159Z,36.70
2018-03-27T07:03:14.144Z,37.30
2018-03-27T07:05:41.073Z,38.77
2018-03-27T07:08:08.057Z,36.57
2018-03-27T07:10:35.064Z,37.47
2018-03-27T07:13:01.992Z,37.63
2018-03-27T07:15:28.876Z,39.37
2018-03-27T07:17:55.799Z,37.70
2018-03-27T07:20:22.796Z,39.30
2018-03-27T07:22:49.980Z,35.67
2018-03-27T07:25:17.090Z,38.03
2018-03-27T07:27:44.125Z,38.10
2018-03-27T07:30:11.070Z,35.97
2018-03-27T07:32:37.976Z,34.93
2018-03-27T07:35:04.909Z,35.43
2018-03-27T07:37:31.860Z,35.67
2018-03-27T07:39:58.833Z,33.77
2018-03-27T07:42:25.728Z,33.07
2018-03-27T07:44:52.675Z,35.87
2018-03-27T07:47:19.651Z,35.43
2018-03-27T07:49:46.621Z,33.93
2018-03-27T07:52:13.624Z,34.17
2018-03-27T07:54:40.596Z,32.83
2018-03-27T07:57:07.570Z,33.90
2018-03-27T07:59:34.558Z,33.50
2018-03-27T08:02:01.447Z,33.67
2018-03-27T08:04:28.354Z,32.90
2018-03-27T08:06:55.368Z,32.27
2018-03-27T08:09:22.361Z,32.43
2018-03-27T08:11:49.410Z,32.53
2018-03-27T08:14:16.439Z,31.63
2018-03-27T08:16:43.432Z,31.20
2018-03-27T08:19:10.325Z,32.53
2018-03-27T08:21:37.328Z,29.93
2018-03-27T08:24:04.338Z,30.63
2018-03-27T08:26:31.585Z,29.77
2018-03-27T08:28:58.533Z,29.07
2018-03-27T08:31:25.726Z,28.83
2018-03-27T08:33:52.682Z,28.43
2018-03-27T08:36:19.804Z,27.73
2018-03-27T08:38:46.820Z,28.50
2018-03-27T08:41:13.895Z,27.70
2018-03-27T08:43:40.817Z,27.23
2018-03-27T08:46:07.867Z,27.47
2018-03-27T08:48:34.885Z,25.90
2018-03-27T08:51:01.789Z,27.20
2018-03-27T08:53:28.688Z,27.40
2018-03-27T08:55:55.803Z,25.87
2018-03-27T08:58:22.749Z,26.03
2018-03-27T09:00:49.867Z,26.13
2018-03-27T09:03:16.774Z,25.43
2018-03-27T09:05:43.792Z,26.10
2018-03-27T09:08:10.834Z,24.33
2018-03-27T09:10:37.730Z,27.27
2018-03-27T09:13:04.592Z,24.80
2018-03-27T09:15:31.523Z,25.03
2018-03-27T09:17:58.447Z,26.03
2018-03-27T09:20:25.381Z,25.53
2018-03-27T09:22:52.445Z,26.57
2018-03-27T09:25:19.413Z,24.03
2018-03-27T09:27:46.376Z,24.93
2018-03-27T09:30:13.286Z,25.67
2018-03-27T09:32:40.197Z,25.60
2018-03-27T09:35:07.070Z,24.10
2018-03-27T09:37:34.028Z,24.80
2018-03-27T09:40:00.970Z,24.53
2018-03-27T09:42:27.828Z,25.07
2018-03-27T09:44:54.765Z,24.20
2018-03-27T09:47:21.954Z,24.17
2018-03-27T09:49:48.913Z,23.20
2018-03-27T09:52:15.836Z,22.93
2018-03-27T09:54:42.765Z,23.73
2018-03-27T09:57:09.797Z,21.83
2018-03-27T09:59:36.709Z,20.67
2018-03-27T10:02:03.645Z,20.53
2018-03-27T10:04:30.594Z,21.37
2018-03-27T10:06:57.496Z,22.30
2018-03-27T10:09:24.470Z,20.90
2018-03-27T10:11:51.457Z,21.00
2018-03-27T10:14:18.344Z,21.80
2018-03-27T10:16:45.404Z,23.10
2018-03-27T10:19:12.299Z,22.30
2018-03-27T10:21:39.782Z,21.93
2018-03-27T10:24:06.751Z,20.83
2018-03-27T10:26:33.971Z,22.80
2018-03-27T10:29:00.896Z,22.50
2018-03-27T10:31:27.963Z,22.83
2018-03-27T10:33:54.919Z,21.60
2018-03-27T10:36:21.906Z,21.73
2018-03-27T10:38:48.796Z,21.23
2018-03-27T10:41:15.840Z,22.53
2018-03-27T10:43:42.783Z,22.10
2018-03-27T10:46:09.871Z,22.20
2018-03-27T10:48:37.023Z,21.17
2018-03-27T10:51:04.358Z,19.20
2018-03-27T10:53:31.270Z,20.17
2018-03-27T10:55:58.326Z,20.53
2018-03-27T10:58:25.301Z,20.53
2018-03-27T11:00:52.344Z,20.10
2018-03-27T11:03:19.271Z,18.40
2018-03-27T11:05:46.230Z,17.67
2018-03-27T11:08:13.134Z,17.47
2018-03-27T11:10:40.196Z,19.70
2018-03-27T11:13:07.083Z,17.63
2018-03-27T11:15:34.054Z,17.40
2018-03-27T11:18:00.945Z,17.40
2018-03-27T11:20:27.892Z,16.17
2018-03-27T11:22:54.787Z,16.63
2018-03-27T11:25:22.891Z,19.33
2018-03-27T11:27:50.006Z,18.97
2018-03-27T11:30:16.858Z,16.43
2018-03-27T11:32:43.767Z,17.00
2018-03-27T11:35:10.676Z,18.77
2018-03-27T11:37:37.592Z,17.47
2018-03-27T11:40:04.503Z,17.30
2018-03-27T11:42:31.451Z,17.80
2018-03-27T11:44:58.419Z,18.07
2018-03-27T11:47:25.472Z,18.53
2018-03-27T11:49:52.585Z,18.13
2018-03-27T11:52:19.554Z,17.20
2018-03-27T11:54:46.546Z,16.57
2018-03-27T11:57:13.413Z,17.20
2018-03-27T11:59:40.317Z,16.73
2018-03-27T12:02:07.308Z,17.70
2018-03-27T12:04:34.248Z,18.17
2018-03-27T12:07:01.271Z,18.17
2018-03-27T12:09:28.172Z,18.63
2018-03-27T12:11:55.154Z,17.93
2018-03-27T12:14:22.271Z,17.47
2018-03-27T12:16:49.221Z,18.23
2018-03-27T12:19:16.238Z,17.40
2018-03-27T12:21:43.210Z,17.00
2018-03-27T12:24:10.350Z,17.97
2018-03-27T12:26:37.408Z,17.07
2018-03-27T12:29:04.336Z,15.63
2018-03-27T12:31:31.551Z,15.87
2018-03-27T12:33:58.444Z,15.57
2018-03-27T12:36:25.484Z,14.57
2018-03-27T12:38:52.609Z,13.67
2018-03-27T12:41:19.655Z,15.33
2018-03-27T12:43:46.694Z,14.03
2018-03-27T12:46:13.736Z,14.37
2018-03-27T12:48:40.645Z,14.90
2018-03-27T12:51:07.799Z,12.73
2018-03-27T12:53:34.733Z,13.57
2018-03-27T12:56:02.110Z,13.30
2018-03-27T12:58:30.137Z,13.87
2018-03-27T13:00:57.234Z,14.30
2018-03-27T13:03:24.258Z,13.47
2018-03-27T13:05:51.295Z,12.73
2018-03-27T13:08:18.381Z,13.57
2018-03-27T13:10:45.331Z,12.80
2018-03-27T13:13:12.294Z,13.57
2018-03-27T13:15:39.249Z,13.33
2018-03-27T13:18:06.181Z,12.80
2018-03-27T13:20:33.043Z,14.07
2018-03-27T13:23:00.177Z,13.23
2018-03-27T13:25:27.034Z,12.20
2018-03-27T13:27:54.049Z,13.50
2018-03-27T13:30:21.084Z,13.70
2018-03-27T13:32:47.995Z,14.50
2018-03-27T13:35:14.871Z,13.80
2018-03-27T13:37:41.717Z,11.43
2018-03-27T13:40:08.606Z,11.93
2018-03-27T13:42:35.566Z,11.73
2018-03-27T13:45:02.511Z,11.00
2018-03-27T13:47:29.425Z,11.53
2018-03-27T13:49:56.463Z,11.70
2018-03-27T13:52:23.409Z,10.57
2018-03-27T13:54:50.381Z,11.87
2018-03-27T13:57:17.261Z,12.97
2018-03-27T13:59:44.127Z,12.17
2018-03-27T14:02:11.031Z,12.27
2018-03-27T14:04:38.072Z,12.00
2018-03-27T14:07:05.004Z,10.67
2018-03-27T14:09:31.912Z,11.40
2018-03-27T14:11:58.991Z,11.47
2018-03-27T14:14:25.974Z,10.80
2018-03-27T14:16:52.891Z,10.70
2018-03-27T14:19:19.888Z,11.23
2018-03-27T14:21:46.983Z,11.63
2018-03-27T14:24:13.950Z,11.67
2018-03-27T14:26:40.981Z,12.63
2018-03-27T14:29:07.971Z,12.20
2018-03-27T14:31:35.083Z,11.07
2018-03-27T14:34:02.010Z,11.97
2018-03-27T14:36:29.139Z,11.87
2018-03-27T14:38:56.173Z,29.77
2018-03-27T14:41:23.244Z,41.30
2018-03-27T14:43:50.221Z,66.67
2018-03-27T14:46:17.180Z,26.00
2018-03-27T14:48:44.189Z,29.10
2018-03-27T14:51:11.335Z,19.23
2018-03-27T14:53:38.290Z,14.27
2018-03-27T14:56:05.547Z,14.30
2018-03-27T14:58:32.537Z,14.23
2018-03-27T15:00:59.492Z,13.47
2018-03-27T15:03:26.441Z,14.93
2018-03-27T15:05:53.433Z,14.27
2018-03-27T15:08:20.355Z,14.70
2018-03-27T15:10:47.262Z,14.67
2018-03-27T15:13:14.274Z,14.90
2018-03-27T15:15:41.251Z,14.70
2018-03-27T15:18:08.090Z,14.20
2018-03-27T15:20:34.981Z,13.80
2018-03-27T15:23:01.882Z,15.43
2018-03-27T15:25:28.853Z,14.77
2018-03-27T15:27:55.782Z,14.87
2018-03-27T15:30:22.816Z,14.70
2018-03-27T15:32:49.810Z,14.73
2018-03-27T15:35:16.767Z,14.87
2018-03-27T15:37:43.682Z,15.17
2018-03-27T15:40:10.553Z,14.40
2018-03-27T15:42:37.622Z,14.30
2018-03-27T15:45:04.541Z,14.30
2018-03-27T15:47:31.450Z,14.77
2018-03-27T15:49:58.379Z,14.83
2018-03-27T15:52:25.307Z,14.47
2018-03-27T15:54:52.373Z,14.30
2018-03-27T15:57:19.343Z,13.67
2018-03-27T15:59:46.287Z,14.47
2018-03-27T16:02:13.260Z,14.27
2018-03-27T16:04:40.364Z,14.50
2018-03-27T16:07:07.294Z,13.77
2018-03-27T16:09:34.281Z,14.87
2018-03-27T16:12:01.226Z,14.50
2018-03-27T16:14:28.161Z,14.47
2018-03-27T16:16:55.095Z,14.60
2018-03-27T16:19:22.136Z,16.17
2018-03-27T16:21:49.059Z,15.47
2018-03-27T16:24:15.997Z,16.00
2018-03-27T16:26:43.172Z,15.10
2018-03-27T16:29:10.184Z,15.40
2018-03-27T16:31:37.202Z,17.07
2018-03-27T16:34:04.190Z,15.80
2018-03-27T16:36:31.451Z,16.23
2018-03-27T16:38:58.394Z,16.00
2018-03-27T16:41:25.329Z,15.73
2018-03-27T16:43:52.408Z,13.93
2018-03-27T16:46:19.335Z,13.30
2018-03-27T16:48:46.304Z,13.03
2018-03-27T16:51:13.398Z,13.60
2018-03-27T16:53:40.405Z,13.13
2018-03-27T16:56:08.422Z,12.37
2018-03-27T16:58:35.392Z,13.47
2018-03-27T17:01:02.388Z,12.73
2018-03-27T17:03:29.275Z,13.93
2018-03-27T17:05:56.391Z,12.20
2018-03-27T17:08:23.316Z,13.20
2018-03-27T17:10:50.273Z,12.53
2018-03-27T17:13:17.254Z,13.47
2018-03-27T17:15:44.215Z,13.40
2018-03-27T17:18:11.172Z,14.13
2018-03-27T17:20:38.149Z,12.70
2018-03-27T17:23:05.016Z,13.00
2018-03-27T17:25:31.864Z,14.17
2018-03-27T17:27:58.812Z,13.47
2018-03-27T17:30:25.799Z,13.53
2018-03-27T17:32:52.915Z,13.23
2018-03-27T17:35:19.955Z,13.37
2018-03-27T17:37:46.913Z,14.20
2018-03-27T17:40:13.799Z,13.87
2018-03-27T17:42:40.692Z,13.53
2018-03-27T17:45:07.556Z,13.57
2018-03-27T17:47:34.505Z,13.53
2018-03-27T17:50:01.467Z,13.17
2018-03-27T17:52:28.347Z,13.80
2018-03-27T17:54:55.291Z,13.50
2018-03-27T17:57:22.479Z,13.70
2018-03-27T17:59:49.571Z,13.80
2018-03-27T18:02:16.502Z,13.65
2018-03-27T18:04:43.349Z,14.45
2018-03-27T18:07:10.345Z,13.73
2018-03-27T18:09:37.242Z,14.23
2018-03-27T18:12:04.363Z,14.73
2018-03-27T18:14:31.453Z,15.15
2018-03-27T18:16:58.395Z,14.82
2018-03-27T18:19:25.358Z,15.30
2018-03-27T18:21:52.541Z,15.52
2018-03-27T18:24:19.571Z,16.27
2018-03-27T18:26:46.551Z,14.73
2018-03-27T18:29:13.508Z,15.40
2018-03-27T18:31:40.514Z,16.58
2018-03-27T18:34:07.489Z,16.35
2018-03-27T18:36:34.509Z,14.27
2018-03-27T18:39:01.480Z,15.50
2018-03-27T18:41:28.454Z,15.77
2018-03-27T18:43:55.486Z,15.13
2018-03-27T18:46:22.462Z,15.52
2018-03-27T18:48:49.311Z,16.58
2018-03-27T18:51:16.161Z,16.23
2018-03-27T18:53:43.280Z,16.42
2018-03-27T18:56:10.158Z,16.37
2018-03-27T18:58:37.118Z,16.15
2018-03-27T19:01:04.075Z,16.00
2018-03-27T19:03:30.984Z,16.73
2018-03-27T19:05:58.011Z,16.10
2018-03-27T19:08:24.946Z,16.62
2018-03-27T19:10:51.839Z,17.20
2018-03-27T19:13:18.855Z,17.58
2018-03-27T19:15:45.744Z,17.45
2018-03-27T19:18:12.637Z,17.62
2018-03-27T19:20:39.538Z,17.55
2018-03-27T19:23:06.907Z,15.95
2018-03-27T19:25:33.861Z,17.30
2018-03-27T19:28:00.816Z,17.80
2018-03-27T19:30:27.772Z,18.05
2018-03-27T19:32:54.791Z,17.70
2018-03-27T19:35:23.644Z,17.55
2018-03-27T19:37:50.522Z,17.25
2018-03-27T19:40:17.406Z,17.75
2018-03-27T19:42:44.316Z,17.92
2018-03-27T19:45:11.220Z,16.73
2018-03-27T19:47:38.405Z,18.10
2018-03-27T19:50:05.243Z,18.83
2018-03-27T19:52:32.114Z,17.77
2018-03-27T19:54:59.111Z,18.58
2018-03-27T19:57:25.969Z,18.20
2018-03-27T19:59:52.917Z,17.98
2018-03-27T20:02:19.816Z,17.80
2018-03-27T20:04:46.718Z,17.02
2018-03-27T20:07:13.541Z,17.37
2018-03-27T20:09:40.419Z,16.20
2018-03-27T20:12:07.380Z,16.98
2018-03-27T20:14:34.271Z,18.20
2018-03-27T20:17:01.176Z,18.05
2018-03-27T20:19:28.128Z,18.08
2018-03-27T20:21:55.034Z,18.30
2018-03-27T20:24:33.946Z,17.37
2018-03-27T20:27:01.188Z,18.73
2018-03-27T20:29:28.045Z,17.60
2018-03-27T20:31:54.918Z,16.60
2018-03-27T20:34:21.816Z,16.30
2018-03-27T20:36:48.764Z,16.90
2018-03-27T20:39:15.641Z,18.65
2018-03-27T20:41:42.506Z,16.73
2018-03-27T20:44:09.366Z,16.83
2018-03-27T20:46:36.972Z,17.33
2018-03-27T20:49:03.846Z,17.45
2018-03-27T20:51:30.745Z,17.85
2018-03-27T20:53:57.642Z,16.75
2018-03-27T20:56:24.581Z,17.23
2018-03-27T20:58:51.529Z,18.05
2018-03-27T21:01:18.438Z,17.58
2018-03-27T21:03:45.322Z,16.08
2018-03-27T21:06:12.263Z,17.70
2018-03-27T21:08:39.164Z,16.58
2018-03-27T21:11:06.047Z,18.05
2018-03-27T21:13:32.960Z,17.95
2018-03-27T21:15:59.823Z,17.55
2018-03-27T21:18:26.720Z,16.92
2018-03-27T21:20:53.869Z,17.10
2018-03-27T21:23:21.049Z,16.98
2018-03-27T21:25:48.123Z,17.05
2018-03-27T21:28:15.092Z,17.12
2018-03-27T21:30:41.987Z,16.35
2018-03-27T21:33:08.888Z,16.30
2018-03-27T21:35:35.952Z,17.23
2018-03-27T21:38:02.855Z,15.68
2018-03-27T21:40:29.754Z,17.33
2018-03-27T21:42:56.769Z,18.60
2018-03-27T21:45:23.903Z,16.35
2018-03-27T21:47:50.873Z,17.20
2018-03-27T21:50:17.891Z,16.73
2018-03-27T21:52:44.785Z,16.55
2018-03-27T21:55:11.698Z,15.82
2018-03-27T21:57:38.663Z,16.52
2018-03-27T22:00:05.655Z,17.52
2018-03-27T22:02:32.700Z,16.85
2018-03-27T22:04:59.637Z,16.10
2018-03-27T22:07:26.573Z,18.25
2018-03-27T22:09:53.568Z,17.25
2018-03-27T22:12:20.653Z,17.12
2018-03-27T22:14:47.754Z,17.37
2018-03-27T22:17:14.657Z,17.33
2018-03-27T22:19:41.674Z,15.85
2018-03-27T22:22:08.649Z,16.95
2018-03-27T22:24:35.652Z,16.30
2018-03-27T22:27:02.774Z,16.23
2018-03-27T22:29:29.683Z,16.00
2018-03-27T22:31:56.763Z,15.68
2018-03-27T22:34:23.813Z,15.63
2018-03-27T22:36:50.679Z,16.00
2018-03-27T22:39:17.754Z,15.48
2018-03-27T22:41:44.723Z,15.95
2018-03-27T22:44:11.734Z,15.50
2018-03-27T22:46:38.675Z,16.00
2018-03-27T22:49:05.624Z,15.35
2018-03-27T22:51:32.644Z,15.68
2018-03-27T22:53:59.596Z,14.43
2018-03-27T22:56:26.587Z,15.73
2018-03-27T22:58:53.558Z,15.50
2018-03-27T23:01:20.484Z,15.93
2018-03-27T23:03:47.470Z,15.13
2018-03-27T23:06:14.574Z,15.90
2018-03-27T23:08:41.438Z,14.77
2018-03-27T23:11:08.583Z,16.42
2018-03-27T23:13:35.606Z,15.77
2018-03-27T23:16:02.674Z,15.10
2018-03-27T23:18:29.548Z,14.52
2018-03-27T23:20:56.592Z,14.87
2018-03-27T23:23:23.767Z,15.23
2018-03-27T23:25:50.735Z,14.38
2018-03-27T23:28:17.749Z,14.73
2018-03-27T23:30:44.691Z,15.20
2018-03-27T23:33:11.653Z,14.80
2018-03-27T23:35:38.602Z,14.18
2018-03-27T23:38:05.517Z,14.43
2018-03-27T23:40:32.521Z,14.23
2018-03-27T23:42:59.470Z,14.80
2018-03-27T23:45:26.359Z,15.15
2018-03-27T23:47:53.488Z,15.50
2018-03-27T23:50:20.529Z,14.07
2018-03-27T23:52:47.544Z,15.30
2018-03-27T23:55:14.531Z,14.55
2018-03-27T23:57:41.456Z,12.40
